createdAt,value
2019-03-03T00:00:22.807Z,10.63
2019-03-03T00:02:52.370Z,11.60
2019-03-03T00:05:23.225Z,10.70
2019-03-03T00:07:52.705Z,11.13
2019-03-03T00:10:22.163Z,10.87
2019-03-03T00:12:51.621Z,11.20
2019-03-03T00:15:21.241Z,10.20
2019-03-03T00:18:09.825Z,10.83
2019-03-03T00:20:59.623Z,11.33
2019-03-03T00:23:29.434Z,11.73
2019-03-03T00:25:58.880Z,10.80
2019-03-03T00:28:51.208Z,11.40
2019-03-03T00:31:31.410Z,11.37
2019-03-03T00:34:00.959Z,10.83
2019-03-03T00:36:49.273Z,11.43
2019-03-03T00:39:37.585Z,11.00
2019-03-03T00:42:25.932Z,11.60
2019-03-03T00:45:14.418Z,11.10
2019-03-03T00:48:02.695Z,10.70
2019-03-03T00:50:39.576Z,11.37
2019-03-03T00:53:18.147Z,10.73
2019-03-03T00:55:53.090Z,10.53
2019-03-03T00:58:53.976Z,11.00
2019-03-03T01:01:42.676Z,11.50
2019-03-03T01:07:39.928Z,11.17
2019-03-03T01:13:49.076Z,10.60
2019-03-03T01:16:37.691Z,11.50
2019-03-03T01:19:25.985Z,12.10
2019-03-03T01:22:00.182Z,11.73
2019-03-03T01:24:48.649Z,11.20
2019-03-03T01:27:18.392Z,10.80
2019-03-03T01:29:50.845Z,11.77
2019-03-03T01:32:20.412Z,11.47
2019-03-03T01:34:49.918Z,10.90
2019-03-03T01:37:39.812Z,11.67
2019-03-03T01:40:21.093Z,10.93
2019-03-03T01:42:50.657Z,11.63
2019-03-03T01:45:20.163Z,12.57
2019-03-03T01:47:49.569Z,11.60
2019-03-03T01:50:19.152Z,11.50
2019-03-03T01:52:48.742Z,11.80
2019-03-03T01:55:18.278Z,11.73
2019-03-03T01:57:50.478Z,11.90
2019-03-03T02:00:39.207Z,10.87
2019-03-03T02:03:20.179Z,11.37
2019-03-03T02:06:01.002Z,12.13
2019-03-03T02:11:05.804Z,11.03
2019-03-03T02:13:35.256Z,11.87
2019-03-03T02:18:55.030Z,10.87
2019-03-03T02:21:24.920Z,10.93
2019-03-03T02:23:54.321Z,10.83
2019-03-03T02:26:23.897Z,10.67
2019-03-03T02:28:53.469Z,10.73
2019-03-03T02:31:25.940Z,10.30
2019-03-03T02:33:55.399Z,12.23
2019-03-03T02:36:25.281Z,11.83
2019-03-03T02:38:54.882Z,11.17
2019-03-03T02:41:54.550Z,10.93
2019-03-03T02:44:26.603Z,11.50
2019-03-03T02:47:15.106Z,9.70
2019-03-03T02:49:56.062Z,10.20
2019-03-03T02:52:26.098Z,10.73
2019-03-03T02:54:55.509Z,9.93
2019-03-03T02:57:25.465Z,10.20
2019-03-03T03:00:15.993Z,10.20
2019-03-03T03:09:18.211Z,9.30
2019-03-03T03:12:02.220Z,9.20
2019-03-03T03:14:46.041Z,9.87
2019-03-03T03:17:34.369Z,8.37
2019-03-03T03:20:29.370Z,8.83
2019-03-03T03:23:17.842Z,8.93
2019-03-03T03:26:06.163Z,9.20
2019-03-03T03:28:54.500Z,9.20
2019-03-03T03:31:34.662Z,9.53
2019-03-03T03:34:23.101Z,8.87
2019-03-03T03:37:11.480Z,8.93
2019-03-03T03:40:14.758Z,9.13
2019-03-03T03:43:23.559Z,8.83
2019-03-03T03:46:01.528Z,8.83
2019-03-03T03:48:42.868Z,8.73
2019-03-03T03:51:31.224Z,8.60
2019-03-03T03:54:19.692Z,9.17
2019-03-03T03:56:58.258Z,9.43
2019-03-03T03:59:46.533Z,8.77
2019-03-03T04:02:34.912Z,8.87
2019-03-03T04:05:42.178Z,8.60
2019-03-03T04:08:17.263Z,9.13
2019-03-03T04:11:00.126Z,8.80
2019-03-03T04:14:07.393Z,8.77
2019-03-03T04:17:00.862Z,8.10
2019-03-03T04:19:36.361Z,7.87
2019-03-03T04:22:33.748Z,9.40
2019-03-03T04:25:36.350Z,8.73
2019-03-03T04:28:12.141Z,7.83
2019-03-03T04:31:04.866Z,8.23
2019-03-03T04:33:42.844Z,7.93
2019-03-03T04:36:50.163Z,8.80
2019-03-03T04:39:38.644Z,8.83
2019-03-03T04:42:26.987Z,8.13
2019-03-03T04:45:15.239Z,7.90
2019-03-03T04:48:03.691Z,8.00
2019-03-03T04:54:08.338Z,8.33
2019-03-03T04:56:56.653Z,7.57
2019-03-03T04:59:45.064Z,8.37
2019-03-03T05:02:33.379Z,7.37
2019-03-03T05:08:07.455Z,7.97
2019-03-03T05:10:55.760Z,8.27
2019-03-03T05:14:01.432Z,8.10
2019-03-03T05:16:53.034Z,8.63
2019-03-03T05:22:01.325Z,8.63
2019-03-03T05:24:37.569Z,9.10
2019-03-03T05:27:07.013Z,9.00
2019-03-03T05:29:36.517Z,8.70
2019-03-03T05:32:06.046Z,9.63
2019-03-03T05:34:35.438Z,8.13
2019-03-03T05:37:04.882Z,9.03
2019-03-03T05:42:56.110Z,9.00
2019-03-03T05:45:46.120Z,9.47
2019-03-03T05:48:34.656Z,9.40
2019-03-03T05:53:39.445Z,9.17
2019-03-03T05:56:28.111Z,11.23
2019-03-03T05:58:59.060Z,8.93
2019-03-03T06:01:28.542Z,9.47
2019-03-03T06:03:58.107Z,10.57
2019-03-03T06:06:27.489Z,10.23
2019-03-03T06:09:00.342Z,9.57
2019-03-03T06:11:29.767Z,9.97
2019-03-03T06:13:59.161Z,9.83
2019-03-03T06:16:50.203Z,10.30
2019-03-03T06:19:19.783Z,10.00
2019-03-03T06:21:49.211Z,9.57
2019-03-03T06:24:41.333Z,10.07
2019-03-03T06:30:13.817Z,10.03
2019-03-03T06:32:43.225Z,10.47
2019-03-03T06:35:12.836Z,9.27
2019-03-03T06:37:42.306Z,9.30
2019-03-03T06:40:11.941Z,9.97
2019-03-03T06:43:00.277Z,9.63
2019-03-03T06:45:29.741Z,9.87
2019-03-03T06:48:18.246Z,9.60
2019-03-03T06:53:55.100Z,9.43
2019-03-03T06:59:20.361Z,8.90
2019-03-03T07:02:08.857Z,9.03
2019-03-03T07:04:38.342Z,8.50
2019-03-03T07:07:07.718Z,8.03
2019-03-03T07:09:37.093Z,8.87
2019-03-03T07:12:06.497Z,8.50
2019-03-03T07:14:35.883Z,8.77
2019-03-03T07:17:05.365Z,8.40
2019-03-03T07:19:34.784Z,8.60
2019-03-03T07:22:06.055Z,7.77
2019-03-03T07:24:35.596Z,8.07
2019-03-03T07:27:05.070Z,8.30
2019-03-03T07:29:34.981Z,8.30
2019-03-03T07:32:04.472Z,7.67
2019-03-03T07:34:34.141Z,7.40
2019-03-03T07:37:03.587Z,7.77
2019-03-03T07:39:35.413Z,7.30
2019-03-03T07:44:46.189Z,7.03
2019-03-03T07:47:27.347Z,7.00
2019-03-03T07:53:11.304Z,7.10
2019-03-03T07:55:40.977Z,6.87
2019-03-03T07:58:10.352Z,6.23
2019-03-03T08:00:48.884Z,6.83
2019-03-03T08:03:20.726Z,6.90
2019-03-03T08:05:50.755Z,6.57
2019-03-03T08:08:20.253Z,5.77
2019-03-03T08:10:49.774Z,5.87
2019-03-03T08:13:19.287Z,5.73
2019-03-03T08:15:48.761Z,5.70
2019-03-03T08:18:18.239Z,5.70
2019-03-03T08:23:23.009Z,5.80
2019-03-03T08:28:33.338Z,5.27
2019-03-03T08:31:03.254Z,5.40
2019-03-03T08:33:32.993Z,5.30
2019-03-03T08:38:56.126Z,6.27
2019-03-03T08:47:52.835Z,5.60
2019-03-03T08:53:39.659Z,5.20
2019-03-03T08:56:28.044Z,4.83
2019-03-03T08:59:14.271Z,5.27
2019-03-03T09:01:53.402Z,5.80
2019-03-03T09:04:41.841Z,4.77
2019-03-03T09:10:31.342Z,4.97
2019-03-03T09:13:20.115Z,4.60
2019-03-03T09:16:08.576Z,4.50
2019-03-03T09:18:56.896Z,4.43
2019-03-03T09:21:45.353Z,4.77
2019-03-03T09:24:33.690Z,4.73
2019-03-03T09:27:22.457Z,5.03
2019-03-03T09:30:10.714Z,4.80
2019-03-03T09:33:02.248Z,4.87
2019-03-03T09:35:50.798Z,5.63
2019-03-03T09:38:30.142Z,5.23
2019-03-03T09:41:10.179Z,4.90
2019-03-03T09:43:58.536Z,5.23
2019-03-03T09:46:46.920Z,4.87
2019-03-03T09:49:35.276Z,4.97
2019-03-03T09:55:37.367Z,5.07
2019-03-03T09:58:25.715Z,4.90
2019-03-03T10:01:14.228Z,4.77
2019-03-03T10:04:04.293Z,4.60
2019-03-03T10:07:07.678Z,4.93
2019-03-03T10:09:48.801Z,4.73
2019-03-03T10:12:38.915Z,4.97
2019-03-03T10:15:27.855Z,5.33
2019-03-03T10:18:16.510Z,4.70
2019-03-03T10:21:04.838Z,4.40
2019-03-03T10:23:53.226Z,4.70
2019-03-03T10:26:38.707Z,4.93
2019-03-03T10:29:27.536Z,3.87
2019-03-03T10:32:16.036Z,4.40
2019-03-03T10:35:12.885Z,4.07
2019-03-03T10:38:01.318Z,4.60
2019-03-03T10:40:49.770Z,4.50
2019-03-03T10:43:38.005Z,3.97
2019-03-03T10:46:16.835Z,4.60
2019-03-03T10:49:05.140Z,3.87
2019-03-03T10:51:53.574Z,3.73
2019-03-03T10:55:03.853Z,4.03
2019-03-03T10:57:52.405Z,3.33
2019-03-03T11:00:40.917Z,3.60
2019-03-03T11:03:29.306Z,3.23
2019-03-03T11:06:18.381Z,3.17
2019-03-03T11:09:06.808Z,3.40
2019-03-03T11:11:48.210Z,3.47
2019-03-03T11:14:36.910Z,3.37
2019-03-03T11:17:25.325Z,3.60
2019-03-03T11:20:13.895Z,3.30
2019-03-03T11:23:02.224Z,2.80
2019-03-03T11:25:50.768Z,2.90
2019-03-03T11:28:39.114Z,2.73
2019-03-03T11:31:27.625Z,3.00
2019-03-03T11:34:15.919Z,3.17
2019-03-03T11:37:07.735Z,3.60
2019-03-03T11:39:56.162Z,3.83
2019-03-03T11:42:45.084Z,2.90
2019-03-03T11:45:33.390Z,3.33
2019-03-03T11:48:21.777Z,3.40
2019-03-03T11:50:56.708Z,3.30
2019-03-03T11:53:45.243Z,3.33
2019-03-03T11:59:48.503Z,3.03
2019-03-03T12:02:24.738Z,2.57
2019-03-03T12:05:13.063Z,3.50
2019-03-03T12:08:01.369Z,3.50
2019-03-03T12:10:50.072Z,3.40
2019-03-03T12:13:24.151Z,3.33
2019-03-03T12:16:12.717Z,4.50
2019-03-03T12:19:01.793Z,3.83
2019-03-03T12:21:51.345Z,3.10
2019-03-03T12:24:29.836Z,3.70
2019-03-03T12:27:08.548Z,4.37
2019-03-03T12:29:56.802Z,4.53
2019-03-03T12:32:45.200Z,2.93
2019-03-03T12:35:33.467Z,3.37
2019-03-03T12:38:21.865Z,4.63
2019-03-03T12:41:10.197Z,3.93
2019-03-03T12:43:58.689Z,3.70
2019-03-03T12:46:47.510Z,4.07
2019-03-03T12:49:36.085Z,3.70
2019-03-03T12:52:24.491Z,4.00
2019-03-03T12:55:12.860Z,4.07
2019-03-03T12:58:01.196Z,3.93
2019-03-03T13:00:49.590Z,4.77
2019-03-03T13:03:40.448Z,4.63
2019-03-03T13:06:30.397Z,3.37
2019-03-03T13:09:31.064Z,3.97
2019-03-03T13:12:20.581Z,3.53
2019-03-03T13:15:08.945Z,3.63
2019-03-03T13:17:57.273Z,3.50
2019-03-03T13:20:45.573Z,3.80
2019-03-03T13:23:24.182Z,4.27
2019-03-03T13:26:12.483Z,3.70
2019-03-03T13:29:00.786Z,3.13
2019-03-03T13:34:42.770Z,3.73
2019-03-03T13:37:31.077Z,3.50
2019-03-03T13:40:19.601Z,3.80
2019-03-03T13:42:57.233Z,4.73
2019-03-03T13:45:49.347Z,2.97
2019-03-03T13:48:30.299Z,3.43
2019-03-03T13:51:02.294Z,3.17
2019-03-03T13:53:32.003Z,3.87
2019-03-03T13:56:01.599Z,3.40
2019-03-03T13:58:36.341Z,3.67
2019-03-03T14:01:05.851Z,4.13
2019-03-03T14:03:35.295Z,3.50
2019-03-03T14:06:25.050Z,4.10
2019-03-03T14:14:55.678Z,3.67
2019-03-03T14:17:37.461Z,4.27
2019-03-03T14:20:29.741Z,4.20
2019-03-03T14:25:49.299Z,3.70
2019-03-03T14:28:18.911Z,3.90
2019-03-03T14:36:13.663Z,4.33
2019-03-03T14:38:43.244Z,4.23
2019-03-03T14:41:12.651Z,4.43
2019-03-03T14:43:42.076Z,3.90
2019-03-03T14:46:30.612Z,4.47
2019-03-03T14:49:11.635Z,3.80
2019-03-03T14:51:52.322Z,4.57
2019-03-03T14:54:21.805Z,2.93
2019-03-03T14:56:54.248Z,3.53
2019-03-03T14:59:26.084Z,4.60
2019-03-03T15:01:55.474Z,3.80
2019-03-03T15:07:03.486Z,3.53
2019-03-03T15:09:34.163Z,3.83
2019-03-03T15:12:03.662Z,3.83
2019-03-03T15:14:39.118Z,4.13
2019-03-03T15:17:08.513Z,3.07
2019-03-03T15:19:37.934Z,4.40
2019-03-03T15:22:07.448Z,4.57
2019-03-03T15:24:36.831Z,3.90
2019-03-03T15:27:06.312Z,3.47
2019-03-03T15:29:35.786Z,3.87
2019-03-03T15:32:05.288Z,4.03
2019-03-03T15:34:34.700Z,3.20
2019-03-03T15:39:40.778Z,4.37
2019-03-03T15:42:10.332Z,4.00
2019-03-03T15:44:39.862Z,4.17
2019-03-03T15:47:09.515Z,3.87
2019-03-03T15:49:38.973Z,3.27
2019-03-03T15:52:27.323Z,4.57
2019-03-03T15:54:57.479Z,5.00
2019-03-03T15:57:47.360Z,4.47
2019-03-03T16:08:54.499Z,4.37
2019-03-03T16:11:24.157Z,4.20
2019-03-03T16:13:53.538Z,4.20
2019-03-03T16:16:23.023Z,3.97
2019-03-03T16:18:52.566Z,3.90
2019-03-03T16:21:21.976Z,4.00
2019-03-03T16:23:53.983Z,4.77
2019-03-03T16:28:59.042Z,4.40
2019-03-03T16:34:03.726Z,4.03
2019-03-03T16:36:33.313Z,4.53
2019-03-03T16:39:02.701Z,4.67
2019-03-03T16:41:32.206Z,4.50
2019-03-03T16:46:37.052Z,4.33
2019-03-03T16:49:06.509Z,3.70
2019-03-03T16:51:55.090Z,4.43
2019-03-03T16:54:24.517Z,3.97
2019-03-03T16:56:54.960Z,4.43
2019-03-03T16:59:24.334Z,4.50
2019-03-03T17:01:54.126Z,4.53
2019-03-03T17:04:23.505Z,5.43
2019-03-03T17:06:53.011Z,3.77
2019-03-03T17:09:22.463Z,3.70
2019-03-03T17:11:51.940Z,4.23
2019-03-03T17:14:21.409Z,4.97
2019-03-03T17:16:51.150Z,5.13
2019-03-03T17:19:20.713Z,4.70
2019-03-03T17:21:50.313Z,4.57
2019-03-03T17:24:19.829Z,4.00
2019-03-03T17:26:49.319Z,4.20
2019-03-03T17:29:18.788Z,4.60
2019-03-03T17:34:23.204Z,4.60
2019-03-03T17:36:52.805Z,3.73
2019-03-03T17:39:22.260Z,4.90
2019-03-03T17:41:53.267Z,4.37
2019-03-03T17:44:22.838Z,4.43
2019-03-03T17:46:52.409Z,4.57
2019-03-03T17:49:21.862Z,4.73
2019-03-03T17:51:51.438Z,4.40
2019-03-03T17:54:20.978Z,4.30
2019-03-03T17:56:50.865Z,5.67
2019-03-03T18:01:56.326Z,4.37
2019-03-03T18:07:01.353Z,5.03
2019-03-03T18:09:30.980Z,4.47
2019-03-03T18:12:19.327Z,4.70
2019-03-03T18:14:49.246Z,4.67
2019-03-03T18:17:18.818Z,5.47
2019-03-03T18:19:48.393Z,5.23
2019-03-03T18:22:18.266Z,4.53
2019-03-03T18:24:47.711Z,4.97
2019-03-03T18:27:17.147Z,5.10
2019-03-03T18:29:46.578Z,3.90
2019-03-03T18:37:45.356Z,4.87
2019-03-03T18:43:17.527Z,5.17
2019-03-03T18:45:47.315Z,4.70
2019-03-03T18:48:16.763Z,4.03
2019-03-03T18:50:46.328Z,4.67
2019-03-03T18:53:15.878Z,5.43
2019-03-03T18:55:45.346Z,5.23
2019-03-03T18:58:14.793Z,4.37
2019-03-03T19:00:45.250Z,4.00
2019-03-03T19:03:14.674Z,5.83
2019-03-03T19:05:44.415Z,4.27
2019-03-03T19:08:13.860Z,5.80
2019-03-03T19:10:43.576Z,4.97
2019-03-03T19:13:13.055Z,4.70
2019-03-03T19:18:31.458Z,5.70
2019-03-03T19:21:00.991Z,5.47
2019-03-03T19:23:30.483Z,5.23
2019-03-03T19:28:35.193Z,5.07
2019-03-03T19:31:04.744Z,5.97
2019-03-03T19:33:55.505Z,4.87
2019-03-03T19:36:39.320Z,4.60
2019-03-03T19:38:58.085Z,5.03
2019-03-03T19:41:39.184Z,4.30
2019-03-03T19:44:08.601Z,4.97
2019-03-03T19:46:38.113Z,4.30
2019-03-03T19:49:07.680Z,5.07
2019-03-03T19:51:37.102Z,4.40
2019-03-03T19:54:06.507Z,4.50
2019-03-03T19:59:10.863Z,4.30
2019-03-03T20:01:51.529Z,5.67
2019-03-03T20:04:33.313Z,4.43
2019-03-03T20:07:02.824Z,5.27
2019-03-03T20:09:59.767Z,5.73
2019-03-03T20:12:29.393Z,4.70
2019-03-03T20:15:01.821Z,5.17
2019-03-03T20:17:31.355Z,5.10
2019-03-03T20:22:37.653Z,5.13
2019-03-03T20:25:26.356Z,5.07
2019-03-03T20:27:56.022Z,5.17
2019-03-03T20:30:25.633Z,4.73
2019-03-03T20:32:55.838Z,5.30
2019-03-03T20:35:25.350Z,5.43
2019-03-03T20:37:54.913Z,6.27
2019-03-03T20:40:24.508Z,4.73
2019-03-03T20:42:53.992Z,5.03
2019-03-03T20:45:24.369Z,5.00
2019-03-03T20:47:53.941Z,5.90
2019-03-03T20:50:43.741Z,4.97
2019-03-03T20:53:24.619Z,4.73
2019-03-03T20:55:56.905Z,5.67
2019-03-03T20:58:45.274Z,5.97
2019-03-03T21:06:48.802Z,5.73
2019-03-03T21:09:30.323Z,6.57
2019-03-03T21:11:59.875Z,5.00
2019-03-03T21:14:29.342Z,5.83
2019-03-03T21:16:58.764Z,4.90
2019-03-03T21:19:42.297Z,5.20
2019-03-03T21:21:59.467Z,5.20
2019-03-03T21:24:51.322Z,4.73
2019-03-03T21:30:20.127Z,5.23
2019-03-03T21:33:09.943Z,5.40
2019-03-03T21:38:34.718Z,5.60
2019-03-03T21:41:04.230Z,4.97
2019-03-03T21:43:35.666Z,5.50
2019-03-03T21:46:05.246Z,6.03
2019-03-03T21:48:34.640Z,4.60
2019-03-03T21:53:54.498Z,4.67
2019-03-03T21:56:24.035Z,5.47
2019-03-03T21:58:53.440Z,6.17
2019-03-03T22:07:05.690Z,5.50
2019-03-03T22:09:35.056Z,4.67
2019-03-03T22:12:15.902Z,5.83
2019-03-03T22:14:45.559Z,4.70
2019-03-03T22:17:15.003Z,5.57
2019-03-03T22:19:44.444Z,5.00
2019-03-03T22:22:13.819Z,5.17
2019-03-03T22:24:43.225Z,5.53
2019-03-03T22:27:13.206Z,5.23
2019-03-03T22:29:42.577Z,5.50
2019-03-03T22:32:11.999Z,5.23
2019-03-03T22:34:41.442Z,5.50
2019-03-03T22:37:10.917Z,4.30
2019-03-03T22:39:40.306Z,5.60
2019-03-03T22:42:09.744Z,4.97
2019-03-03T22:44:39.142Z,5.40
2019-03-03T22:47:08.512Z,5.87
2019-03-03T22:49:37.945Z,5.40
2019-03-03T22:52:07.382Z,5.93
2019-03-03T22:54:36.763Z,4.17
2019-03-03T22:57:06.202Z,4.90
2019-03-03T22:59:35.585Z,4.97
2019-03-03T23:02:05.187Z,6.70
2019-03-03T23:04:51.797Z,5.60
2019-03-03T23:07:59.311Z,5.83
2019-03-03T23:11:06.727Z,5.30
2019-03-03T23:16:31.022Z,5.30
2019-03-03T23:19:38.492Z,5.20
2019-03-03T23:22:51.754Z,5.43
2019-03-03T23:25:49.315Z,5.70
2019-03-03T23:28:39.473Z,4.77
2019-03-03T23:31:08.917Z,5.37
2019-03-03T23:33:38.369Z,6.23
2019-03-03T23:36:07.925Z,5.07
2019-03-03T23:38:37.342Z,5.10
2019-03-03T23:41:06.765Z,5.60
2019-03-03T23:43:36.402Z,5.53
2019-03-03T23:46:05.793Z,5.57
2019-03-03T23:48:35.213Z,5.20
2019-03-03T23:53:43.524Z,5.73
2019-03-03T23:56:32.269Z,4.90
2019-03-03T23:59:01.953Z,4.93
